createdAt,value
2023-05-04T00:01:28.797Z,2.62
2023-05-04T00:05:30.904Z,2.63
2023-05-04T00:09:32.897Z,2.34
2023-05-04T00:13:34.938Z,2.54
2023-05-04T00:17:37.061Z,2.23
2023-05-04T00:21:39.042Z,2.55
2023-05-04T00:25:41.220Z,2.42
2023-05-04T00:29:43.247Z,2.32
2023-05-04T00:33:46.016Z,2.37
2023-05-04T00:37:48.220Z,2.27
2023-05-04T00:41:50.302Z,2.32
2023-05-04T00:45:52.636Z,2.24
2023-05-04T00:49:54.893Z,2.23
2023-05-04T00:53:58.178Z,2.12
2023-05-04T00:58:00.378Z,2.07
2023-05-04T01:02:03.223Z,1.98
2023-05-04T01:06:22.776Z,2.01
2023-05-04T01:10:34.419Z,1.96
2023-05-04T01:14:37.458Z,1.91
2023-05-04T01:18:39.503Z,1.92
2023-05-04T01:22:42.326Z,1.80
2023-05-04T01:26:46.732Z,1.79
2023-05-04T01:30:55.250Z,1.63
2023-05-04T01:34:57.842Z,1.63
2023-05-04T01:38:59.960Z,1.59
2023-05-04T01:43:01.980Z,1.58
2023-05-04T01:47:04.129Z,1.60
2023-05-04T01:51:06.919Z,1.57
2023-05-04T01:55:09.352Z,1.51
2023-05-04T01:59:11.695Z,1.42
2023-05-04T02:03:15.171Z,1.27
2023-05-04T02:07:17.750Z,1.34
2023-05-04T02:11:19.834Z,1.25
2023-05-04T02:15:22.101Z,1.28
2023-05-04T02:19:24.283Z,1.27
2023-05-04T02:23:26.351Z,1.19
2023-05-04T02:27:28.402Z,1.23
2023-05-04T02:31:30.628Z,1.07
2023-05-04T02:35:32.736Z,1.10
2023-05-04T02:39:34.891Z,1.05
2023-05-04T02:43:37.226Z,1.03
2023-05-04T02:47:39.338Z,1.01
2023-05-04T02:51:41.523Z,1.01
2023-05-04T02:55:43.642Z,0.93
2023-05-04T02:59:46.524Z,0.95
2023-05-04T03:03:48.599Z,0.96
2023-05-04T03:07:51.084Z,0.91
2023-05-04T03:11:53.092Z,0.86
2023-05-04T03:15:55.105Z,0.86
2023-05-04T03:19:57.386Z,0.90
2023-05-04T03:24:00.184Z,0.95
2023-05-04T03:28:03.091Z,0.90
2023-05-04T03:32:05.635Z,1.06
2023-05-04T03:36:09.193Z,1.13
2023-05-04T03:40:13.402Z,1.16
2023-05-04T03:44:15.210Z,1.21
2023-05-04T03:48:17.291Z,1.33
2023-05-04T03:52:19.427Z,1.49
2023-05-04T03:56:21.968Z,1.63
2023-05-04T04:00:24.188Z,1.80
2023-05-04T04:04:33.547Z,1.97
2023-05-04T04:08:36.091Z,2.10
2023-05-04T04:12:38.599Z,2.26
2023-05-04T04:16:40.706Z,2.58
2023-05-04T04:20:42.888Z,2.78
2023-05-04T04:24:44.892Z,3.03
2023-05-04T04:28:50.713Z,3.30
2023-05-04T04:32:53.778Z,3.61
2023-05-04T04:36:55.935Z,3.93
2023-05-04T04:40:57.930Z,4.25
2023-05-04T04:45:00.192Z,4.60
2023-05-04T04:49:02.738Z,4.91
2023-05-04T04:53:04.731Z,5.26
2023-05-04T04:57:06.891Z,5.58
2023-05-04T05:01:08.960Z,5.88
2023-05-04T05:05:11.207Z,6.08
2023-05-04T05:09:13.618Z,6.27
2023-05-04T05:13:15.885Z,6.39
2023-05-04T05:17:19.525Z,6.59
2023-05-04T05:21:21.523Z,6.87
2023-05-04T05:25:23.440Z,7.22
2023-05-04T05:29:26.130Z,7.34
2023-05-04T05:33:28.146Z,7.51
2023-05-04T05:37:30.216Z,7.87
2023-05-04T05:41:32.370Z,8.22
2023-05-04T05:45:34.445Z,8.71
2023-05-04T05:49:36.514Z,9.26
2023-05-04T05:53:38.866Z,9.77
2023-05-04T05:57:40.559Z,10.16
2023-05-04T06:01:42.955Z,10.27
2023-05-04T06:05:44.989Z,10.46
2023-05-04T06:09:46.982Z,10.85
2023-05-04T06:13:49.108Z,11.03
2023-05-04T06:17:51.203Z,11.36
2023-05-04T06:21:53.325Z,11.66
2023-05-04T06:25:55.452Z,11.84
2023-05-04T06:29:57.500Z,12.12
2023-05-04T06:33:59.460Z,12.45
2023-05-04T06:38:01.737Z,12.39
2023-05-04T06:42:03.782Z,12.60
2023-05-04T06:46:11.495Z,12.63
2023-05-04T06:50:14.293Z,12.85
2023-05-04T06:54:16.375Z,12.89
2023-05-04T06:58:19.944Z,13.18
2023-05-04T07:02:22.138Z,13.40
2023-05-04T07:06:26.558Z,13.58
2023-05-04T07:10:28.887Z,13.74
2023-05-04T07:14:30.949Z,13.65
2023-05-04T07:18:33.095Z,13.45
2023-05-04T07:22:36.357Z,13.61
2023-05-04T07:26:38.711Z,13.68
2023-05-04T07:30:40.876Z,13.90
2023-05-04T07:34:45.970Z,14.17
2023-05-04T07:38:48.804Z,14.31
2023-05-04T07:42:50.422Z,14.31
2023-05-04T07:46:52.400Z,14.17
2023-05-04T07:50:54.756Z,14.23
2023-05-04T07:54:56.832Z,14.51
2023-05-04T07:58:58.890Z,14.44
2023-05-04T08:03:00.974Z,14.43
2023-05-04T08:07:03.072Z,14.33
2023-05-04T08:11:15.959Z,14.44
2023-05-04T08:15:21.908Z,14.40
2023-05-04T08:19:24.558Z,14.62
2023-05-04T08:23:26.766Z,14.59
2023-05-04T08:27:28.815Z,14.72
2023-05-04T08:31:30.837Z,14.93
2023-05-04T08:35:32.486Z,15.09
2023-05-04T08:39:34.736Z,15.59
2023-05-04T08:43:37.129Z,15.16
2023-05-04T08:47:42.999Z,15.28
2023-05-04T08:51:46.714Z,15.80
2023-05-04T08:55:51.289Z,16.01
2023-05-04T08:59:54.728Z,15.78
2023-05-04T09:03:57.918Z,15.68
2023-05-04T09:08:00.060Z,15.62
2023-05-04T09:12:02.129Z,16.03
2023-05-04T09:16:04.534Z,15.48
2023-05-04T09:20:07.204Z,15.43
2023-05-04T09:24:09.426Z,15.76
2023-05-04T09:28:11.482Z,15.94
2023-05-04T09:32:16.329Z,15.84
2023-05-04T09:36:21.210Z,16.47
2023-05-04T09:40:41.122Z,16.61
2023-05-04T09:44:43.303Z,16.71
2023-05-04T09:48:56.963Z,16.57
2023-05-04T09:52:59.974Z,16.57
2023-05-04T09:57:11.478Z,16.47
2023-05-04T10:01:13.240Z,16.76
2023-05-04T10:05:17.436Z,17.05
2023-05-04T10:09:20.409Z,16.69
2023-05-04T10:13:23.590Z,16.92
2023-05-04T10:17:39.599Z,16.56
2023-05-04T10:22:13.936Z,17.33
2023-05-04T10:26:40.477Z,17.16
2023-05-04T10:30:42.929Z,16.90
2023-05-04T10:34:45.409Z,16.91
2023-05-04T10:38:47.536Z,17.31
2023-05-04T10:42:49.578Z,17.47
2023-05-04T10:47:03.727Z,17.48
2023-05-04T10:51:05.872Z,17.39
2023-05-04T10:55:09.012Z,16.96
2023-05-04T10:59:11.229Z,16.72
2023-05-04T11:03:14.149Z,17.20
2023-05-04T11:07:16.397Z,16.55
2023-05-04T11:11:18.424Z,16.30
2023-05-04T11:15:21.599Z,16.24
2023-05-04T11:19:23.597Z,16.80
2023-05-04T11:23:26.063Z,17.57
2023-05-04T11:27:29.612Z,17.48
2023-05-04T11:31:31.407Z,17.63
2023-05-04T11:35:34.201Z,17.77
2023-05-04T11:39:36.270Z,17.65
2023-05-04T11:43:42.145Z,17.76
2023-05-04T11:47:46.543Z,17.74
2023-05-04T11:51:48.703Z,17.68
2023-05-04T11:55:53.363Z,18.11
2023-05-04T11:59:56.158Z,18.12
2023-05-04T12:03:58.431Z,17.77
2023-05-04T12:08:02.210Z,17.53
2023-05-04T12:12:04.437Z,17.35
2023-05-04T12:16:13.052Z,16.86
2023-05-04T12:20:23.607Z,16.78
2023-05-04T12:24:27.722Z,16.84
2023-05-04T12:28:30.243Z,16.73
2023-05-04T12:32:32.299Z,16.23
2023-05-04T12:36:35.101Z,15.88
2023-05-04T12:40:37.226Z,15.78
2023-05-04T12:44:39.693Z,15.71
2023-05-04T12:48:41.785Z,15.82
2023-05-04T12:52:43.841Z,15.82
2023-05-04T12:56:45.821Z,16.60
2023-05-04T13:00:48.508Z,17.04
2023-05-04T13:04:50.565Z,17.50
2023-05-04T13:08:52.687Z,16.72
2023-05-04T13:12:54.783Z,16.91
2023-05-04T13:16:57.031Z,17.70
2023-05-04T13:20:59.172Z,17.87
2023-05-04T13:25:01.198Z,17.85
2023-05-04T13:29:04.431Z,18.51
2023-05-04T13:33:16.742Z,18.54
2023-05-04T13:37:23.564Z,18.88
2023-05-04T13:41:26.475Z,18.54
2023-05-04T13:45:28.629Z,19.08
2023-05-04T13:49:30.709Z,19.00
2023-05-04T13:53:32.797Z,19.12
2023-05-04T13:57:35.090Z,19.26
2023-05-04T14:01:37.411Z,19.13
2023-05-04T14:05:39.517Z,19.04
2023-05-04T14:09:41.659Z,19.05
2023-05-04T14:13:43.654Z,19.46
2023-05-04T14:17:46.764Z,19.48
2023-05-04T14:21:48.818Z,19.63
2023-05-04T14:25:51.917Z,19.76
2023-05-04T14:29:53.961Z,19.59
2023-05-04T14:33:57.047Z,19.64
2023-05-04T14:37:59.145Z,19.47
2023-05-04T14:42:02.665Z,19.45
2023-05-04T14:46:04.770Z,19.47
2023-05-04T14:50:07.651Z,19.40
2023-05-04T14:54:09.933Z,19.27
2023-05-04T14:58:12.495Z,19.19
2023-05-04T15:02:14.567Z,19.24
2023-05-04T15:06:16.440Z,19.27
2023-05-04T15:10:18.559Z,18.79
2023-05-04T15:14:21.370Z,19.12
2023-05-04T15:18:24.115Z,18.91
2023-05-04T15:22:26.091Z,18.56
2023-05-04T15:26:29.485Z,18.36
2023-05-04T15:30:31.426Z,17.93
2023-05-04T15:34:33.474Z,18.30
2023-05-04T15:38:36.332Z,18.48
2023-05-04T15:42:38.502Z,19.01
2023-05-04T15:46:41.034Z,18.68
2023-05-04T15:50:42.816Z,18.45
2023-05-04T15:54:44.799Z,18.32
2023-05-04T15:58:46.900Z,18.25
2023-05-04T16:02:49.006Z,18.25
2023-05-04T16:06:51.386Z,18.05
2023-05-04T16:10:54.109Z,17.80
2023-05-04T16:14:56.160Z,17.53
2023-05-04T16:18:58.207Z,17.16
2023-05-04T16:23:00.458Z,16.93
2023-05-04T16:27:03.367Z,16.57
2023-05-04T16:31:06.092Z,16.55
2023-05-04T16:35:08.502Z,16.15
2023-05-04T16:39:10.540Z,16.08
2023-05-04T16:43:12.552Z,15.95
2023-05-04T16:47:14.662Z,15.76
2023-05-04T16:51:16.770Z,15.67
2023-05-04T16:55:19.062Z,15.55
2023-05-04T16:59:21.666Z,15.48
2023-05-04T17:03:23.858Z,15.29
2023-05-04T17:07:25.940Z,15.21
2023-05-04T17:11:28.192Z,15.07
2023-05-04T17:15:30.298Z,14.88
2023-05-04T17:19:33.071Z,14.62
2023-05-04T17:23:35.270Z,14.32
2023-05-04T17:27:37.445Z,14.14
2023-05-04T17:31:39.579Z,13.92
2023-05-04T17:35:41.741Z,13.75
2023-05-04T17:39:44.506Z,13.54
2023-05-04T17:43:47.353Z,13.39
2023-05-04T17:47:53.182Z,13.15
2023-05-04T17:51:56.480Z,12.85
2023-05-04T17:55:58.436Z,12.63
2023-05-04T18:00:00.552Z,12.45
2023-05-04T18:04:05.581Z,12.10
2023-05-04T18:08:07.756Z,11.89
2023-05-04T18:12:10.022Z,11.75
2023-05-04T18:16:12.265Z,11.44
2023-05-04T18:20:14.296Z,11.27
2023-05-04T18:24:19.583Z,11.09
2023-05-04T18:28:21.725Z,10.92
2023-05-04T18:32:24.505Z,10.76
2023-05-04T18:36:27.144Z,10.52
2023-05-04T18:40:29.519Z,10.36
2023-05-04T18:44:31.618Z,10.29
2023-05-04T18:48:33.606Z,10.14
2023-05-04T18:52:35.639Z,10.03
2023-05-04T18:56:37.769Z,9.92
2023-05-04T19:00:39.997Z,9.73
2023-05-04T19:04:43.005Z,9.64
2023-05-04T19:08:45.100Z,9.47
2023-05-04T19:12:47.315Z,9.42
2023-05-04T19:16:49.125Z,9.30
2023-05-04T19:20:51.393Z,9.27
2023-05-04T19:24:54.393Z,9.15
2023-05-04T19:28:56.573Z,9.06
2023-05-04T19:32:58.747Z,9.02
2023-05-04T19:37:00.916Z,8.90
2023-05-04T19:41:04.340Z,8.94
2023-05-04T19:45:07.374Z,8.84
2023-05-04T19:49:09.861Z,8.71
2023-05-04T19:53:12.102Z,8.60
2023-05-04T19:57:14.711Z,8.54
2023-05-04T20:01:18.123Z,8.41
2023-05-04T20:05:20.571Z,8.39
2023-05-04T20:09:22.598Z,8.34
2023-05-04T20:13:25.628Z,8.26
2023-05-04T20:17:28.040Z,8.09
2023-05-04T20:21:30.794Z,7.95
2023-05-04T20:25:32.992Z,7.90
2023-05-04T20:29:34.985Z,7.77
2023-05-04T20:33:37.336Z,7.66
2023-05-04T20:37:39.410Z,7.59
2023-05-04T20:41:41.502Z,7.58
2023-05-04T20:45:43.864Z,7.48
2023-05-04T20:49:46.033Z,7.40
2023-05-04T20:53:49.028Z,7.34
2023-05-04T20:57:52.218Z,7.18
2023-05-04T21:01:54.366Z,7.35
2023-05-04T21:05:57.292Z,7.22
2023-05-04T21:09:59.368Z,7.11
2023-05-04T21:14:01.472Z,7.01
2023-05-04T21:18:03.917Z,6.64
2023-05-04T21:22:06.110Z,6.77
2023-05-04T21:26:08.587Z,6.66
2023-05-04T21:30:11.199Z,6.49
2023-05-04T21:34:13.557Z,6.58
2023-05-04T21:38:15.790Z,6.36
2023-05-04T21:42:17.939Z,6.37
2023-05-04T21:46:20.132Z,6.30
2023-05-04T21:50:22.392Z,6.47
2023-05-04T21:54:25.802Z,6.41
2023-05-04T21:58:28.509Z,6.28
2023-05-04T22:02:30.583Z,6.38
2023-05-04T22:06:33.537Z,6.23
2023-05-04T22:10:35.683Z,6.28
2023-05-04T22:14:38.598Z,6.26
2023-05-04T22:18:42.136Z,6.22
2023-05-04T22:22:44.278Z,6.25
2023-05-04T22:26:46.423Z,6.27
2023-05-04T22:30:48.601Z,6.21
2023-05-04T22:34:50.621Z,6.07
2023-05-04T22:38:52.775Z,6.02
2023-05-04T22:42:54.881Z,6.08
2023-05-04T22:46:57.041Z,6.11
2023-05-04T22:51:01.200Z,6.05
2023-05-04T22:55:04.013Z,6.21
2023-05-04T22:59:06.437Z,6.11
2023-05-04T23:03:08.871Z,6.13
2023-05-04T23:07:11.201Z,6.37
2023-05-04T23:11:13.287Z,6.38
2023-05-04T23:15:15.443Z,6.15
2023-05-04T23:19:17.633Z,6.11
2023-05-04T23:23:19.912Z,6.08
2023-05-04T23:27:22.275Z,6.21
2023-05-04T23:31:24.491Z,6.28
2023-05-04T23:35:28.079Z,6.16
2023-05-04T23:39:30.238Z,6.17
2023-05-04T23:43:32.308Z,6.17
2023-05-04T23:47:34.368Z,6.19
2023-05-04T23:51:36.399Z,6.33
2023-05-04T23:55:38.393Z,6.32
2023-05-04T23:59:40.457Z,6.30
